White Bear Township, Minnesota
Current Conditions -  °F | °C
As of 9:31 AM on Saturday 25 Oct 2014 (Local Time) from K21D Reporting Station
Clear Clear  
Wind Chill: 12°   Ceiling: Unl
Heat Index: 12°   Visibility: 10mi
Dew Point:   Wind: 17mph
Humidity: 51%   Direction: 310°NW
Pressure: 30.03"   Gusts: 24mph
Location:  45.0958°N, 93.0043°W
Report Text: K21D 251431Z AUTO 31015G21KT 10SM CLR 12/02 A3003 RMK AO2
Loading
Personal Weather Stations






























Interactive Weather Map
Tropical Storm Tracking
New forecast layout! Learn more

10-Day Weather Forecast

Advertisements
Track Severe Weather on mobile